Time;durP1;ratioP1;P1;durP2;ratioP2;P2;SDS_P1;SDS_P2;PMS_P1;PMS_P2;Temp;Humidity;BMP_temperature;BMP_pressure;BME280_temperature;BME280_humidity;BME280_pressure;Samples;Min_cycle;Max_cycle;Signal;HPM_P1;HPM_P2
2022/01/28 00:00:32;;;;;;;5.60;2.67;;;4.40;87.60;;;;;;4695910;28;10000996;-72
2022/01/28 00:03:06;;;;;;;4.28;2.05;;;4.40;87.70;;;;;;5025828;28;20053;-71
2022/01/28 00:05:35;;;;;;;4.50;1.85;;;4.40;87.80;;;;;;5024549;28;20061;-71
2022/01/28 00:08:02;;;;;;;4.75;2.42;;;4.50;87.80;;;;;;5025684;28;20136;-71
2022/01/28 00:10:30;;;;;;;4.38;2.30;;;4.40;87.70;;;;;;5025458;28;20103;-72
2022/01/28 00:13:13;;;;;;;5.55;2.50;;;4.40;87.90;;;;;;5025552;28;20060;-72
2022/01/28 00:15:47;;;;;;;6.53;2.53;;;4.50;87.90;;;;;;5048350;28;20052;-71
2022/01/28 00:18:41;;;;;;;4.55;2.03;;;4.50;87.90;;;;;;5043141;28;20075;-71
2022/01/28 00:40:20;;;;;;;4.03;1.85;;;4.50;87.60;;;;;;5047281;28;20045;-72
2022/01/28 00:42:47;;;;;;;5.40;2.58;;;4.50;87.50;;;;;;5046910;28;20055;-71
2022/01/28 00:45:13;;;;;;;5.07;2.45;;;4.50;87.50;;;;;;5040865;28;20738;-73
2022/01/28 00:47:40;;;;;;;4.47;2.25;;;4.40;87.50;;;;;;5045932;28;20052;-73
2022/01/28 00:50:08;;;;;;;5.50;2.08;;;4.40;87.40;;;;;;5046881;28;20051;-73
2022/01/28 00:52:37;;;;;;;5.05;2.22;;;4.30;87.50;;;;;;5050563;28;20044;-71
2022/01/28 00:55:04;;;;;;;2.65;1.50;;;4.40;87.50;;;;;;5050602;28;20118;-72
2022/01/28 00:57:31;;;;;;;4.18;2.13;;;4.40;87.50;;;;;;5051544;28;20052;-71
2022/01/28 00:59:58;;;;;;;4.93;2.00;;;4.40;87.50;;;;;;5048351;28;20067;-71
2022/01/28 01:02:25;;;;;;;3.55;1.88;;;4.40;87.50;;;;;;5050696;28;20064;-72
2022/01/28 01:04:52;;;;;;;3.97;1.95;;;4.40;87.40;;;;;;5044408;28;20429;-71
2022/01/28 01:07:19;;;;;;;4.22;1.83;;;4.40;87.20;;;;;;5047047;28;20584;-71
2022/01/28 01:09:49;;;;;;;4.35;2.00;;;4.40;87.20;;;;;;5045561;28;21912;-72
2022/01/28 01:12:18;;;;;;;3.45;1.42;;;4.40;87.00;;;;;;5047714;28;20080;-71
2022/01/28 01:14:46;;;;;;;3.58;1.20;;;4.40;86.70;;;;;;5045903;28;20071;-71
2022/01/28 01:17:25;;;;;;;2.17;0.98;;;4.40;86.40;;;;;;5048231;28;20106;-71
2022/01/28 01:20:00;;;;;;;2.28;1.00;;;4.40;86.10;;;;;;5047120;28;20717;-72
2022/01/28 01:22:36;;;;;;;1.30;0.85;;;4.40;85.90;;;;;;5046147;28;20139;-72
2022/01/28 01:25:15;;;;;;;3.15;1.02;;;4.40;85.80;;;;;;5042250;28;20044;-72
2022/01/28 01:27:42;;;;;;;1.88;0.60;;;4.30;85.50;;;;;;5044298;28;20135;-72
2022/01/28 01:30:10;;;;;;;2.30;1.02;;;4.30;85.40;;;;;;5046223;28;20508;-73
2022/01/28 01:32:37;;;;;;;2.78;0.85;;;4.30;85.20;;;;;;5044163;28;20045;-71
2022/01/28 01:35:05;;;;;;;5.47;0.95;;;4.30;85.30;;;;;;5040366;28;20057;-73
2022/01/28 01:37:32;;;;;;;1.55;0.50;;;4.20;85.20;;;;;;5044486;28;20053;-72
2022/01/28 01:39:59;;;;;;;1.45;0.40;;;4.20;85.00;;;;;;5047732;28;20117;-72
2022/01/28 01:42:35;;;;;;;0.75;0.40;;;4.30;84.80;;;;;;5046687;28;20139;-72
2022/01/28 01:45:43;;;;;;;0.30;0.20;;;4.30;84.60;;;;;;5050164;28;20051;-73
2022/01/28 01:53:33;;;;;;;0.50;0.40;;;4.20;84.30;;;;;;5048050;28;20182;-72
2022/01/28 01:56:00;;;;;;;1.63;0.50;;;4.20;84.30;;;;;;5038010;28;20079;-72
2022/01/28 01:58:32;;;;;;;1.38;0.80;;;4.20;84.20;;;;;;5013733;28;20574;-72
2022/01/28 02:01:18;;;;;;;0.66;0.27;;;4.20;84.30;;;;;;1967478;28;10150739;-71
2022/01/28 02:03:45;;;;;;;2.90;0.70;;;4.20;84.10;;;;;;4000772;28;10001540;-72
2022/01/28 02:06:12;;;;;;;1.02;0.70;;;4.20;84.10;;;;;;5045530;28;20134;-71
2022/01/28 02:08:40;;;;;;;1.85;0.40;;;4.20;84.20;;;;;;5046908;28;20075;-72
2022/01/28 02:11:07;;;;;;;2.55;0.98;;;4.20;84.30;;;;;;5038222;28;20056;-72
2022/01/28 02:13:38;;;;;;;2.15;0.80;;;4.20;84.20;;;;;;5034592;28;20053;-71
2022/01/28 02:16:06;;;;;;;0.52;0.35;;;4.20;84.30;;;;;;5043328;28;20650;-72
2022/01/28 02:18:33;;;;;;;2.45;0.95;;;4.20;84.20;;;;;;5042219;28;20406;-72
2022/01/28 02:21:06;;;;;;;1.40;0.60;;;4.20;84.30;;;;;;5040625;28;20498;-72
2022/01/28 02:23:34;;;;;;;4.78;0.50;;;4.10;84.40;;;;;;5047109;28;20050;-71
2022/01/28 02:26:02;;;;;;;1.02;0.50;;;4.10;84.50;;;;;;5046873;28;20052;-72
2022/01/28 02:28:32;;;;;;;1.23;0.52;;;4.20;84.50;;;;;;5048662;28;20055;-72
2022/01/28 02:31:01;;;;;;;2.10;0.75;;;4.10;84.60;;;;;;5048975;28;20059;-72
2022/01/28 02:33:31;;;;;;;3.47;0.55;;;4.10;84.80;;;;;;5039280;28;20060;-71
2022/01/28 02:36:03;;;;;;;2.30;0.95;;;4.10;84.90;;;;;;5009207;28;20430;-72
2022/01/28 02:38:33;;;;;;;0.70;0.50;;;4.10;85.00;;;;;;5026943;28;20057;-71
2022/01/28 02:41:02;;;;;;;1.88;0.88;;;4.10;85.10;;;;;;5028657;28;20053;-72
2022/01/28 02:43:37;;;;;;;2.90;0.85;;;4.10;85.20;;;;;;5030275;28;20183;-72
2022/01/28 02:46:08;;;;;;;4.25;1.08;;;4.20;85.30;;;;;;5026420;28;20048;-72
2022/01/28 02:48:37;;;;;;;1.88;0.57;;;4.20;85.40;;;;;;5026435;28;20446;-72
2022/01/28 02:51:10;;;;;;;5.80;1.35;;;4.20;85.40;;;;;;5028792;28;20068;-73
2022/01/28 02:53:42;;;;;;;2.75;1.45;;;4.20;85.50;;;;;;5027614;28;20049;-73
2022/01/28 02:56:20;;;;;;;4.55;0.95;;;4.20;85.50;;;;;;5027724;28;20053;-73
2022/01/28 02:58:48;;;;;;;2.33;1.15;;;4.20;85.60;;;;;;5045695;28;20044;-72
2022/01/28 03:01:17;;;;;;;4.05;1.05;;;4.20;85.70;;;;;;5036347;28;20041;-72
2022/01/28 03:03:45;;;;;;;1.90;1.00;;;4.20;85.80;;;;;;5030804;28;21730;-72
2022/01/28 03:06:13;;;;;;;3.95;1.30;;;4.30;85.90;;;;;;5027777;28;20049;-72
2022/01/28 03:08:48;;;;;;;2.92;1.13;;;4.20;85.90;;;;;;5029320;28;20049;-72
2022/01/28 03:11:41;;;;;;;4.30;1.10;;;4.30;85.80;;;;;;5028366;28;20168;-74
2022/01/28 03:14:22;;;;;;;3.40;1.30;;;4.30;85.90;;;;;;5028366;28;20199;-71
2022/01/28 03:17:07;;;;;;;;;;;4.30;85.90;;;;;;5049276;28;20052;-73
2022/01/28 03:19:45;;;;;;;3.03;1.13;;;4.40;85.90;;;;;;5047819;28;20350;-73
2022/01/28 03:22:12;;;;;;;3.28;1.33;;;4.40;85.90;;;;;;5039708;28;20518;-71
2022/01/28 03:24:41;;;;;;;2.13;1.02;;;4.40;86.00;;;;;;5036453;28;20462;-71
2022/01/28 03:27:16;;;;;;;3.88;1.33;;;4.40;86.00;;;;;;5031943;28;20052;-71
2022/01/28 03:29:43;;;;;;;3.83;1.33;;;4.40;86.10;;;;;;5027233;28;20227;-73
2022/01/28 03:32:10;;;;;;;6.45;2.70;;;4.40;86.10;;;;;;5039552;28;20287;-72
2022/01/28 03:34:37;;;;;;;2.72;1.27;;;4.40;86.20;;;;;;5045489;28;20044;-73
2022/01/28 03:37:07;;;;;;;3.65;1.40;;;4.40;86.30;;;;;;5026269;28;20082;-72
2022/01/28 03:39:34;;;;;;;7.28;1.75;;;4.40;86.20;;;;;;5045588;28;20048;-73
2022/01/28 03:42:03;;;;;;;1.92;0.77;;;4.40;86.10;;;;;;5044959;28;20056;-73
2022/01/28 03:44:30;;;;;;;2.22;0.93;;;4.40;86.00;;;;;;5036813;28;20052;-74
2022/01/28 03:46:57;;;;;;;4.50;1.45;;;4.40;85.90;;;;;;5028965;28;20057;-73
2022/01/28 03:49:24;;;;;;;5.22;1.38;;;4.40;85.90;;;;;;5046533;28;20530;-72
2022/01/28 03:51:51;;;;;;;2.42;0.93;;;4.40;86.00;;;;;;5047487;28;20047;-73
2022/01/28 03:54:18;;;;;;;3.72;1.63;;;4.40;86.00;;;;;;5046858;28;20045;-72
2022/01/28 03:56:45;;;;;;;4.80;1.58;;;4.30;86.10;;;;;;5045581;28;20179;-73
2022/01/28 03:59:13;;;;;;;4.30;1.27;;;4.30;86.20;;;;;;4930389;28;21684;-73
2022/01/28 04:01:42;;;;;;;3.58;1.27;;;4.30;86.30;;;;;;1024086;28;10002056;-72
2022/01/28 04:12:24;;;;;;;5.32;1.60;;;4.30;86.40;;;;;;5046888;28;20045;-71
2022/01/28 04:15:06;;;;;;;3.05;1.30;;;4.30;86.40;;;;;;5044127;28;20049;-71
2022/01/28 04:17:33;;;;;;;2.70;1.10;;;4.30;86.30;;;;;;5044956;28;20134;-73
2022/01/28 04:20:00;;;;;;;2.95;1.10;;;4.30;86.30;;;;;;5046248;28;20045;-73
2022/01/28 04:22:28;;;;;;;2.63;1.15;;;4.30;86.20;;;;;;5047600;28;20051;-73
2022/01/28 04:24:55;;;;;;;4.20;1.08;;;4.30;86.20;;;;;;5047650;28;20056;-71
2022/01/28 04:27:22;;;;;;;1.88;0.95;;;4.30;86.10;;;;;;5045974;28;20060;-72
2022/01/28 04:29:49;;;;;;;1.67;0.88;;;4.30;86.00;;;;;;5044839;28;20076;-73
2022/01/28 04:32:18;;;;;;;3.88;0.95;;;4.40;85.90;;;;;;5046948;28;20048;-73
2022/01/28 04:34:46;;;;;;;6.85;1.20;;;4.30;86.00;;;;;;5045339;28;20141;-73
2022/01/28 04:37:22;;;;;;;2.78;0.85;;;4.30;86.00;;;;;;5046836;28;20059;-73
2022/01/28 04:39:53;;;;;;;2.10;0.70;;;4.40;86.00;;;;;;5046507;28;20047;-73
2022/01/28 04:42:36;;;;;;;2.67;1.05;;;4.40;86.00;;;;;;5046424;28;21977;-75
2022/01/28 04:45:10;;;;;;;2.05;0.63;;;4.40;85.90;;;;;;5044877;28;20053;-73
2022/01/28 04:47:45;;;;;;;1.42;0.57;;;4.40;86.00;;;;;;5043892;28;20052;-72
2022/01/28 04:50:21;;;;;;;2.80;0.90;;;4.40;85.90;;;;;;5047524;28;20179;-74
2022/01/28 04:53:04;;;;;;;4.05;0.90;;;4.40;86.00;;;;;;5046421;28;20056;-73
2022/01/28 05:01:06;;;;;;;2.78;0.93;;;4.40;85.90;;;;;;5022712;28;21008;-73
2022/01/28 05:03:48;;;;;;;1.30;0.60;;;4.40;85.90;;;;;;5047454;28;20056;-73
2022/01/28 05:28:25;;;;;;;1.83;0.32;;;4.20;84.80;;;;;;5013095;28;20143;-72
2022/01/28 05:30:52;;;;;;;3.05;0.60;;;4.20;84.80;;;;;;5043481;28;20056;-72
2022/01/28 05:33:19;;;;;;;1.75;0.35;;;4.20;84.80;;;;;;5042611;28;20044;-73
2022/01/28 05:35:47;;;;;;;1.52;0.50;;;4.10;84.70;;;;;;5023190;28;20502;-73
2022/01/28 05:38:14;;;;;;;0.70;0.32;;;4.10;84.70;;;;;;5024616;28;20056;-73
2022/01/28 05:40:41;;;;;;;1.15;0.35;;;4.10;84.80;;;;;;5022470;28;20694;-71
2022/01/28 05:43:08;;;;;;;0.90;0.40;;;4.00;84.80;;;;;;5024705;28;20063;-73
2022/01/28 05:45:35;;;;;;;0.95;0.35;;;4.00;84.70;;;;;;5024305;28;21555;-73
2022/01/28 05:48:02;;;;;;;0.85;0.38;;;3.90;84.70;;;;;;5025190;28;20051;-74
2022/01/28 05:50:29;;;;;;;2.92;0.50;;;3.90;84.70;;;;;;5023152;28;21010;-73
2022/01/28 05:52:57;;;;;;;1.40;0.40;;;3.90;84.70;;;;;;5027235;28;20059;-72
2022/01/28 05:55:24;;;;;;;1.20;0.50;;;3.90;84.70;;;;;;5025005;28;20491;-72
2022/01/28 05:57:51;;;;;;;1.00;0.40;;;3.80;84.80;;;;;;5023683;28;20053;-73
2022/01/28 06:00:19;;;;;;;2.22;0.50;;;3.90;84.90;;;;;;4945210;28;20045;-73
2022/01/28 06:02:47;;;;;;;4.95;0.65;;;3.90;84.90;;;;;;308572;28;10024115;-73
2022/01/28 06:05:15;;;;;;;1.60;0.60;;;3.90;84.90;;;;;;5046513;28;20073;-72
2022/01/28 06:07:42;;;;;;;3.03;1.27;;;3.90;85.00;;;;;;5044732;28;20083;-73
2022/01/28 06:10:12;;;;;;;7.60;2.00;;;3.80;85.10;;;;;;5045278;28;20053;-73
2022/01/28 06:12:42;;;;;;;1.60;0.50;;;3.80;85.20;;;;;;5044667;28;23138;-73
2022/01/28 06:15:10;;;;;;;3.92;0.60;;;3.80;85.20;;;;;;5045232;28;20048;-73
2022/01/28 06:17:38;;;;;;;2.00;0.73;;;3.70;85.30;;;;;;5044019;28;20444;-72
2022/01/28 06:20:07;;;;;;;2.17;0.65;;;3.70;85.20;;;;;;5043242;28;20079;-72
2022/01/28 06:22:39;;;;;;;2.35;0.82;;;3.70;85.20;;;;;;5043037;28;20071;-73
2022/01/28 06:25:07;;;;;;;0.80;0.57;;;3.70;85.30;;;;;;5045430;28;20690;-71
2022/01/28 06:27:36;;;;;;;0.63;0.25;;;3.70;85.20;;;;;;5043347;28;20344;-73
2022/01/28 06:30:05;;;;;;;1.30;0.40;;;3.70;85.30;;;;;;5049068;28;20055;-73
2022/01/28 06:32:32;;;;;;;2.13;0.40;;;3.70;85.30;;;;;;5049715;28;20060;-72
2022/01/28 06:35:00;;;;;;;2.22;0.35;;;3.70;85.50;;;;;;5044548;28;20669;-72
2022/01/28 06:37:27;;;;;;;2.35;0.30;;;3.70;85.60;;;;;;5048416;28;20657;-73
2022/01/28 06:39:54;;;;;;;0.50;0.30;;;3.70;85.60;;;;;;5050092;28;20056;-72
2022/01/28 06:42:21;;;;;;;2.22;0.73;;;3.70;85.50;;;;;;5044835;28;20056;-72
2022/01/28 06:44:49;;;;;;;0.68;0.32;;;3.70;85.60;;;;;;5045343;28;20538;-71
2022/01/28 06:47:16;;;;;;;1.67;0.45;;;3.70;85.50;;;;;;5046637;28;20163;-73
2022/01/28 06:49:43;;;;;;;3.42;0.75;;;3.70;85.40;;;;;;5055237;28;20052;-73
2022/01/28 06:52:10;;;;;;;2.22;0.55;;;3.70;85.40;;;;;;5053429;28;20048;-72
2022/01/28 06:54:37;;;;;;;0.68;0.38;;;3.70;85.40;;;;;;5051967;28;20063;-72
2022/01/28 06:57:04;;;;;;;1.50;0.50;;;3.80;85.40;;;;;;5048575;28;20092;-72
2022/01/28 06:59:31;;;;;;;5.07;0.52;;;3.70;85.60;;;;;;5046284;28;20190;-71
2022/01/28 07:01:59;;;;;;;2.78;0.70;;;3.80;85.60;;;;;;5046197;28;22471;-72
2022/01/28 07:04:26;;;;;;;2.58;1.42;;;3.80;85.60;;;;;;5046893;28;20048;-72
2022/01/28 07:06:53;;;;;;;2.28;0.47;;;3.80;85.70;;;;;;5045585;28;20045;-71
2022/01/28 07:09:20;;;;;;;0.73;0.40;;;3.80;85.70;;;;;;5047513;28;20056;-72
2022/01/28 07:11:47;;;;;;;2.03;0.50;;;3.80;85.80;;;;;;5048165;28;20195;-72
2022/01/28 07:14:14;;;;;;;0.68;0.47;;;3.80;85.80;;;;;;5045393;28;20045;-72
2022/01/28 07:16:41;;;;;;;1.33;0.60;;;3.80;85.90;;;;;;5046262;28;20054;-72
2022/01/28 07:19:09;;;;;;;1.63;0.55;;;3.80;85.90;;;;;;5045053;28;21968;-72
2022/01/28 07:21:36;;;;;;;3.40;1.63;;;3.80;86.00;;;;;;5032516;28;20143;-72
2022/01/28 07:24:04;;;;;;;5.82;1.15;;;3.80;86.00;;;;;;5027281;28;20514;-72
2022/01/28 07:26:31;;;;;;;1.67;0.60;;;3.80;86.00;;;;;;5026285;28;20513;-72
2022/01/28 07:28:58;;;;;;;1.40;0.70;;;3.90;86.00;;;;;;5025331;28;20340;-72
2022/01/28 07:31:25;;;;;;;2.70;0.80;;;3.90;86.00;;;;;;5035504;28;20107;-72
2022/01/28 07:33:52;;;;;;;2.78;1.02;;;3.80;85.90;;;;;;5048537;28;20044;-72
2022/01/28 07:36:20;;;;;;;2.08;0.77;;;3.80;85.80;;;;;;5044310;28;20545;-72
2022/01/28 07:38:47;;;;;;;3.13;1.20;;;3.80;85.60;;;;;;5048332;28;20052;-73
2022/01/28 07:41:14;;;;;;;2.97;0.68;;;3.80;85.50;;;;;;5051247;28;20119;-72
2022/01/28 07:43:42;;;;;;;4.80;1.98;;;3.70;85.40;;;;;;5046846;28;20052;-73
2022/01/28 07:46:09;;;;;;;4.00;1.40;;;3.70;85.40;;;;;;5050006;28;20056;-73
2022/01/28 07:48:36;;;;;;;1.75;0.82;;;3.70;85.40;;;;;;5027837;28;20048;-72
2022/01/28 07:51:03;;;;;;;2.65;1.05;;;3.70;85.40;;;;;;5047049;28;21347;-72
2022/01/28 07:53:31;;;;;;;3.13;0.93;;;3.70;85.50;;;;;;5048146;28;20050;-73
2022/01/28 07:55:58;;;;;;;4.90;1.52;;;3.70;85.50;;;;;;5048996;28;20181;-72
2022/01/28 07:58:25;;;;;;;5.75;1.17;;;3.80;85.70;;;;;;5046014;28;20048;-72
2022/01/28 08:01:10;;;;;;;4.19;1.76;;;3.80;85.90;;;;;;2918304;28;10219238;-72
2022/01/28 08:03:37;;;;;;;4.57;1.17;;;3.80;86.10;;;;;;3649099;28;10001639;-72
2022/01/28 08:06:04;;;;;;;5.28;1.83;;;3.90;86.10;;;;;;5048278;28;20494;-71
2022/01/28 08:08:32;;;;;;;2.25;1.10;;;3.90;86.20;;;;;;5044818;28;20059;-73
2022/01/28 08:10:59;;;;;;;7.22;1.05;;;3.90;86.30;;;;;;5047339;28;20060;-72
2022/01/28 08:13:26;;;;;;;2.67;1.08;;;3.90;86.30;;;;;;5046709;28;20059;-72
2022/01/28 08:15:53;;;;;;;5.53;1.20;;;4.00;86.10;;;;;;5044034;28;20521;-73
2022/01/28 08:18:20;;;;;;;3.00;0.60;;;4.00;86.00;;;;;;5046509;28;20055;-73
2022/01/28 08:20:47;;;;;;;3.17;1.13;;;4.10;85.90;;;;;;5044488;28;20052;-72
2022/01/28 08:23:15;;;;;;;3.80;0.73;;;4.10;85.80;;;;;;5043439;28;20398;-73
2022/01/28 08:25:43;;;;;;;2.88;0.50;;;4.10;85.70;;;;;;5026564;28;20452;-72
2022/01/28 08:28:11;;;;;;;2.50;0.90;;;4.20;85.60;;;;;;5044012;28;20167;-73
2022/01/28 08:30:40;;;;;;;3.97;1.83;;;4.20;85.70;;;;;;5044636;28;20045;-72
2022/01/28 08:33:07;;;;;;;6.28;0.60;;;4.20;85.60;;;;;;5044188;28;20050;-72
2022/01/28 08:35:37;;;;;;;2.90;0.63;;;4.30;85.50;;;;;;5045387;28;20048;-72
2022/01/28 08:38:13;;;;;;;2.22;1.00;;;4.30;85.40;;;;;;5044206;28;20135;-72
2022/01/28 08:40:40;;;;;;;3.20;0.90;;;4.20;85.30;;;;;;5045605;28;20055;-71
2022/01/28 08:43:09;;;;;;;4.90;1.10;;;4.30;85.30;;;;;;5046658;28;20044;-74
2022/01/28 08:45:36;;;;;;;2.63;0.63;;;4.30;85.20;;;;;;5043240;28;20048;-72
2022/01/28 08:48:03;;;;;;;1.85;0.80;;;4.30;85.20;;;;;;5044490;28;20056;-72
2022/01/28 08:50:30;;;;;;;4.85;0.90;;;4.30;85.30;;;;;;5043133;28;20046;-73
2022/01/28 08:52:57;;;;;;;7.75;2.15;;;4.30;85.20;;;;;;5043446;28;20059;-71
2022/01/28 08:55:25;;;;;;;3.33;1.05;;;4.40;85.40;;;;;;5041049;28;20425;-72
2022/01/28 08:57:53;;;;;;;6.10;1.48;;;4.40;85.40;;;;;;5044100;28;20360;-72
2022/01/28 09:00:22;;;;;;;4.68;1.35;;;4.40;85.40;;;;;;5042404;28;20048;-72
2022/01/28 09:02:50;;;;;;;2.07;0.87;;;4.40;85.40;;;;;;5047542;28;20071;-72
2022/01/28 09:05:18;;;;;;;2.22;1.02;;;4.40;85.30;;;;;;5046273;28;20475;-72
2022/01/28 09:07:45;;;;;;;5.75;1.25;;;4.50;85.30;;;;;;5042871;28;20074;-73
2022/01/28 09:10:18;;;;;;;4.85;1.08;;;4.50;85.30;;;;;;5042518;28;21656;-72
2022/01/28 09:13:09;;;;;;;3.88;0.98;;;4.50;85.40;;;;;;5045502;28;20053;-73
2022/01/28 09:15:40;;;;;;;3.13;0.98;;;4.50;85.30;;;;;;5044511;28;20052;-73
2022/01/28 09:18:09;;;;;;;6.13;1.17;;;4.60;85.40;;;;;;5044756;28;20048;-72
2022/01/28 09:20:37;;;;;;;3.30;1.27;;;4.60;85.40;;;;;;5044628;28;20049;-72
2022/01/28 09:23:05;;;;;;;4.03;1.13;;;4.70;85.30;;;;;;5045743;28;20064;-72
2022/01/28 09:25:33;;;;;;;2.05;1.00;;;4.70;85.30;;;;;;5043290;28;20422;-72
2022/01/28 09:28:01;;;;;;;2.72;1.15;;;4.70;85.30;;;;;;5043320;28;20244;-72
2022/01/28 09:30:28;;;;;;;3.25;0.90;;;4.80;85.30;;;;;;5042166;28;20440;-73
2022/01/28 09:32:58;;;;;;;2.72;0.80;;;4.80;85.00;;;;;;5044300;28;20577;-72
2022/01/28 09:35:26;;;;;;;2.85;0.82;;;4.80;85.00;;;;;;5044751;28;20083;-73
2022/01/28 09:37:53;;;;;;;2.83;1.10;;;4.80;85.00;;;;;;5042803;28;20049;-73
2022/01/28 09:40:21;;;;;;;0.93;0.50;;;4.90;85.10;;;;;;5043734;28;20131;-72
2022/01/28 09:42:51;;;;;;;2.17;0.52;;;4.90;85.00;;;;;;5043862;28;20530;-71
2022/01/28 09:45:21;;;;;;;3.88;1.13;;;5.00;84.80;;;;;;5044371;28;20062;-73
2022/01/28 09:47:51;;;;;;;6.40;0.73;;;5.00;84.70;;;;;;5044570;28;20059;-73
2022/01/28 09:50:21;;;;;;;;;;;5.00;84.80;;;;;;5045995;28;20478;-72
2022/01/28 09:52:48;;;;;;;3.38;0.77;;;5.10;84.70;;;;;;5045564;28;20366;-72
2022/01/28 09:55:15;;;;;;;3.92;1.45;;;5.10;84.60;;;;;;5043098;28;20052;-73
2022/01/28 09:57:42;;;;;;;2.35;0.85;;;5.10;84.50;;;;;;5043878;28;20087;-72
2022/01/28 10:00:11;;;;;;;4.20;1.65;;;5.20;84.60;;;;;;4913101;28;20059;-72
2022/01/28 10:02:51;;;;;;;3.05;0.73;;;5.20;84.60;;;;;;1035469;28;10002006;-73
2022/01/28 10:05:22;;;;;;;4.97;1.70;;;5.20;84.40;;;;;;5037363;28;20055;-73
2022/01/28 10:08:04;;;;;;;4.47;1.35;;;5.20;84.50;;;;;;5048613;28;20048;-72
2022/01/28 10:10:49;;;;;;;6.30;1.10;;;5.20;84.50;;;;;;5048905;28;20509;-74
2022/01/28 10:13:21;;;;;;;2.80;0.85;;;5.20;84.50;;;;;;5047384;28;20087;-73
2022/01/28 10:15:56;;;;;;;1.65;0.70;;;5.20;84.50;;;;;;5048754;28;20581;-73
2022/01/28 10:18:36;;;;;;;1.45;0.70;;;5.30;84.50;;;;;;5046368;28;20056;-73
2022/01/28 10:21:24;;;;;;;1.98;0.65;;;5.30;84.50;;;;;;5045630;28;20493;-72
2022/01/28 10:24:06;;;;;;;2.95;1.45;;;5.40;84.30;;;;;;5041556;28;20057;-72
2022/01/28 10:26:36;;;;;;;9.13;0.95;;;5.40;84.10;;;;;;5047028;28;20456;-72
2022/01/28 10:29:05;;;;;;;4.35;1.10;;;5.60;83.70;;;;;;5044670;28;20211;-71
2022/01/28 10:31:40;;;;;;;8.38;1.38;;;5.60;83.70;;;;;;5011792;28;20537;-73
2022/01/28 10:34:12;;;;;;;3.22;0.80;;;5.50;83.70;;;;;;5046572;28;20044;-72
2022/01/28 10:36:40;;;;;;;5.60;1.02;;;5.60;83.90;;;;;;5021957;28;20515;-73
2022/01/28 10:39:14;;;;;;;2.85;0.75;;;5.60;83.80;;;;;;5045685;28;20047;-72
2022/01/28 10:41:52;;;;;;;2.17;1.00;;;5.60;83.80;;;;;;5044818;28;20183;-72
2022/01/28 10:44:20;;;;;;;5.60;1.33;;;5.70;83.60;;;;;;5048721;28;20164;-72
2022/01/28 10:46:53;;;;;;;5.60;0.70;;;5.70;83.10;;;;;;5048867;28;20600;-74
2022/01/28 10:49:26;;;;;;;3.85;1.30;;;5.70;83.00;;;;;;5047748;28;20691;-72
2022/01/28 10:51:55;;;;;;;4.88;0.93;;;5.80;82.50;;;;;;5050333;28;20055;-73
2022/01/28 10:54:23;;;;;;;1.38;0.80;;;5.80;82.30;;;;;;5053350;28;20048;-71
2022/01/28 10:56:54;;;;;;;9.18;1.27;;;5.80;82.30;;;;;;5050122;28;20061;-72
2022/01/28 10:59:24;;;;;;;6.78;1.10;;;5.90;81.90;;;;;;5045253;28;20522;-72
2022/01/28 11:01:52;;;;;;;2.97;0.73;;;5.90;81.70;;;;;;5029077;28;20059;-73
2022/01/28 11:04:20;;;;;;;3.15;0.57;;;5.90;80.90;;;;;;5046156;28;20051;-73
2022/01/28 11:06:49;;;;;;;5.40;1.33;;;6.00;80.30;;;;;;5048752;28;20540;-73
2022/01/28 11:09:20;;;;;;;7.20;2.08;;;6.00;80.80;;;;;;5045676;28;20526;-72
2022/01/28 11:11:48;;;;;;;2.42;0.90;;;6.10;80.70;;;;;;5048715;28;20047;-72
2022/01/28 11:14:15;;;;;;;3.20;0.70;;;6.10;80.20;;;;;;5047886;28;20049;-72
2022/01/28 11:16:42;;;;;;;6.22;1.13;;;6.20;80.00;;;;;;5047336;28;20335;-73
2022/01/28 11:19:11;;;;;;;5.75;0.90;;;6.20;79.90;;;;;;5049752;28;20044;-72
2022/01/28 11:21:51;;;;;;;2.00;0.70;;;6.20;80.10;;;;;;5045869;28;20052;-72
2022/01/28 11:24:33;;;;;;;4.95;1.15;;;6.10;80.10;;;;;;5046361;28;20680;-72
2022/01/28 11:27:10;;;;;;;4.50;1.10;;;6.20;79.50;;;;;;5045614;28;20058;-72
2022/01/28 11:29:37;;;;;;;8.23;0.70;;;6.20;78.10;;;;;;5028121;28;20060;-73
2022/01/28 11:32:14;;;;;;;3.25;0.85;;;6.10;78.20;;;;;;5046748;28;20606;-71
2022/01/28 11:34:57;;;;;;;4.88;1.15;;;6.20;78.40;;;;;;5045129;28;20053;-72
2022/01/28 11:37:30;;;;;;;4.15;0.60;;;6.10;78.80;;;;;;5044713;28;20064;-72
2022/01/28 11:40:09;;;;;;;4.03;0.93;;;6.10;79.00;;;;;;5046310;28;20048;-72
2022/01/28 11:42:36;;;;;;;3.15;1.20;;;6.20;78.90;;;;;;5045449;28;20057;-71
2022/01/28 11:45:06;;;;;;;6.30;0.98;;;6.20;78.80;;;;;;5042821;28;20068;-72
2022/01/28 11:47:34;;;;;;;3.72;0.90;;;6.20;78.00;;;;;;5031693;28;20292;-72
2022/01/28 11:50:07;;;;;;;3.28;0.82;;;6.20;78.40;;;;;;5051517;28;20071;-72
2022/01/28 11:52:39;;;;;;;6.05;0.90;;;6.20;78.20;;;;;;5051615;28;20048;-72
2022/01/28 11:55:32;;;;;;;5.10;0.63;;;6.20;78.40;;;;;;5051672;28;20579;-72
2022/01/28 11:58:01;;;;;;;4.75;1.20;;;6.20;78.70;;;;;;5040746;28;20044;-72
2022/01/28 12:00:32;;;;;;;3.35;1.02;;;6.20;78.70;;;;;;5044919;28;20056;-72
2022/01/28 12:03:18;;;;;;;2.73;0.80;;;6.20;78.80;;;;;;4356487;28;10002401;-73
2022/01/28 12:05:52;;;;;;;4.30;1.10;;;6.20;78.80;;;;;;1739489;28;10002081;-72
2022/01/28 12:08:21;;;;;;;4.45;1.25;;;6.20;78.90;;;;;;5053872;28;20151;-73
2022/01/28 12:10:51;;;;;;;5.40;0.90;;;6.20;78.80;;;;;;5051818;28;20049;-73
2022/01/28 12:13:20;;;;;;;4.23;0.87;;;6.20;78.70;;;;;;5050891;28;20057;-73
2022/01/28 12:16:10;;;;;;;5.83;1.20;;;6.30;77.40;;;;;;5050519;28;20512;-73
2022/01/28 12:19:01;;;;;;;4.15;0.80;;;6.30;77.50;;;;;;5051635;28;20049;-71
2022/01/28 12:21:31;;;;;;;5.03;0.75;;;6.30;77.20;;;;;;5046287;28;20063;-72
2022/01/28 12:24:31;;;;;;;5.03;0.77;;;6.30;76.90;;;;;;5053011;28;20052;-72
2022/01/28 12:27:02;;;;;;;5.68;1.08;;;6.40;76.00;;;;;;5049855;28;20154;-73
2022/01/28 12:29:32;;;;;;;2.47;0.73;;;6.40;75.60;;;;;;5051542;28;20399;-73
2022/01/28 12:32:00;;;;;;;3.35;0.82;;;6.50;75.50;;;;;;5044544;28;20044;-73
2022/01/28 12:34:28;;;;;;;3.20;1.00;;;6.40;75.90;;;;;;5050514;28;20052;-73
2022/01/28 12:36:58;;;;;;;5.72;0.85;;;6.40;76.20;;;;;;5051238;28;20195;-74
2022/01/28 12:39:39;;;;;;;2.38;0.90;;;6.50;74.70;;;;;;5050266;28;20375;-74
2022/01/28 12:42:22;;;;;;;4.72;1.15;;;6.50;75.10;;;;;;5051527;28;20052;-74
2022/01/28 12:44:52;;;;;;;5.50;1.23;;;6.50;74.60;;;;;;5032425;28;20092;-74
2022/01/28 12:47:19;;;;;;;1.92;0.50;;;6.50;74.80;;;;;;5041004;28;20387;-74
2022/01/28 12:49:47;;;;;;;3.42;0.88;;;6.50;75.00;;;;;;5030119;28;20510;-73
2022/01/28 12:52:13;;;;;;;4.30;0.63;;;6.50;74.20;;;;;;5031045;28;20052;-74
2022/01/28 12:54:43;;;;;;;4.63;0.90;;;6.60;74.50;;;;;;5046915;28;20052;-71
2022/01/28 12:57:13;;;;;;;3.00;0.60;;;6.50;73.40;;;;;;5043229;28;20067;-72
2022/01/28 12:59:42;;;;;;;;;;;6.60;73.40;;;;;;5041161;28;20049;-72
2022/01/28 13:02:09;;;;;;;8.02;0.75;;;6.60;73.70;;;;;;5025482;28;19932;-72
2022/01/28 13:04:57;;;;;;;5.35;0.77;;;6.60;73.50;;;;;;5023661;28;20048;-72
2022/01/28 13:10:09;;;;;;;2.60;0.90;;;6.60;73.40;;;;;;5027773;28;21003;-72
2022/01/28 13:12:37;;;;;;;3.03;0.73;;;6.60;72.90;;;;;;5023614;28;20097;-71
2022/01/28 13:15:07;;;;;;;4.60;0.80;;;6.60;72.50;;;;;;5024463;28;20044;-72
2022/01/28 13:17:34;;;;;;;2.63;0.32;;;6.60;72.90;;;;;;5025688;28;20537;-72
2022/01/28 13:20:02;;;;;;;5.72;1.25;;;6.70;71.00;;;;;;5026507;28;20071;-72
2022/01/28 13:22:32;;;;;;;2.08;0.88;;;6.60;70.20;;;;;;5027736;28;20053;-71
2022/01/28 13:25:00;;;;;;;7.78;1.00;;;6.60;70.10;;;;;;5022734;28;20275;-73
2022/01/28 13:27:41;;;;;;;3.70;0.73;;;6.60;69.90;;;;;;5026163;28;20483;-71
2022/01/28 13:30:13;;;;;;;3.20;0.47;;;6.60;70.50;;;;;;5028285;28;20049;-71
2022/01/28 13:32:43;;;;;;;3.25;0.70;;;6.50;70.90;;;;;;5046419;28;20603;-71
2022/01/28 13:35:15;;;;;;;5.30;0.55;;;6.50;70.90;;;;;;5033218;28;20491;-71
2022/01/28 13:37:45;;;;;;;3.72;1.88;;;6.50;70.60;;;;;;5035165;28;20064;-72
2022/01/28 13:40:14;;;;;;;4.28;0.80;;;6.50;70.00;;;;;;5041540;28;20045;-71
2022/01/28 13:42:58;;;;;;;2.50;0.63;;;6.50;69.90;;;;;;5046806;28;20512;-71
2022/01/28 13:45:34;;;;;;;4.82;0.65;;;6.40;70.70;;;;;;5040808;28;20065;-71
2022/01/28 13:48:02;;;;;;;3.58;0.85;;;6.40;70.70;;;;;;5030395;28;20057;-72
2022/01/28 13:50:31;;;;;;;6.82;1.20;;;6.40;70.60;;;;;;5029833;28;20811;-73
2022/01/28 13:53:35;;;;;;;4.30;1.00;;;6.50;70.50;;;;;;5031684;28;20386;-72
2022/01/28 13:56:08;;;;;;;5.40;0.60;;;6.40;70.30;;;;;;5028981;28;20057;-72
2022/01/28 13:58:46;;;;;;;6.70;0.80;;;6.40;70.50;;;;;;5029319;28;20071;-72
2022/01/28 14:01:19;;;;;;;3.85;0.80;;;6.40;70.50;;;;;;4732866;28;10001200;-72
2022/01/28 14:03:52;;;;;;;4.70;1.25;;;6.40;70.60;;;;;;1385717;28;10002063;-71
2022/01/28 14:06:20;;;;;;;6.32;0.98;;;6.40;71.20;;;;;;5032993;28;20059;-71
2022/01/28 14:08:51;;;;;;;8.23;1.10;;;6.40;71.40;;;;;;5036411;28;20123;-71
2022/01/28 14:11:27;;;;;;;6.03;0.77;;;6.40;72.00;;;;;;5037934;28;20633;-72
2022/01/28 14:14:15;;;;;;;6.82;1.65;;;6.50;72.00;;;;;;5037467;28;20064;-71
2022/01/28 14:16:44;;;;;;;9.63;1.20;;;6.50;71.50;;;;;;5035976;28;20051;-71
2022/01/28 14:19:11;;;;;;;4.28;0.80;;;6.60;70.60;;;;;;5038341;28;20570;-71